Terminal Aerodrome Forecast
Issued by NWS Upton, NY

Home | Current Version | Previous Version | Text Only | Print | Product List | Glossary On
Versions: 1 2 3 4 5 6 7 8 9 10 11 12 13 14 15 16 17 18 19 20 21 22 23 24 25 26 27 28 29 30 31 32 33 34 35 36 37
354
FTUS41 KOKX 232321
TAFJFK
TAF
KJFK 232321Z 2400/2506 13007KT 1SM -RA BR OVC004
      TEMPO 2400/2402 3SM -RA BR BKN006
     FM240200 22005KT 2SM -DZ BR OVC005 WS020/27035KT
     FM240700 27008KT P6SM OVC012
     FM241400 30008KT P6SM FEW020 OVC080
     FM241800 VRB05KT P6SM OVC080
     FM242100 33004KT 5SM -RA BR BKN025 OVC050
     FM250300 05004KT 4SM -DZ BR BKN015 OVC050=

USA.gov is the U.S. government's official web portal to all federal, state and local government web resources and services.